Time;durP1;ratioP1;P1;durP2;ratioP2;P2;SDS_P1;SDS_P2;PMS_P1;PMS_P2;Temp;Humidity;BMP_temperature;BMP_pressure;BME280_temperature;BME280_humidity;BME280_pressure;Samples;Min_cycle;Max_cycle;Signal;HPM_P1;HPM_P2
2023/06/23 00:01:36;;;;;;;2.80;2.30;;;21.10;94.90;;;;;;5030498;28;20960;-69
2023/06/23 00:04:06;;;;;;;4.37;2.53;;;21.10;94.90;;;;;;5029508;28;20828;-69
2023/06/23 00:06:34;;;;;;;2.50;2.30;;;21.10;95.20;;;;;;5030571;28;20425;-69
2023/06/23 00:09:07;;;;;;;3.40;2.33;;;21.10;95.30;;;;;;5030315;28;20556;-69
2023/06/23 00:11:35;;;;;;;3.27;2.43;;;21.00;95.50;;;;;;5030020;28;20449;-69
2023/06/23 00:14:03;;;;;;;3.00;2.80;;;21.00;95.80;;;;;;5029351;28;20499;-68
2023/06/23 00:16:31;;;;;;;3.40;3.10;;;21.10;96.10;;;;;;5030463;28;21003;-69
2023/06/23 00:19:00;;;;;;;3.30;2.83;;;21.00;96.00;;;;;;5030231;28;20439;-69
2023/06/23 00:21:30;;;;;;;3.70;3.10;;;21.00;96.20;;;;;;5030482;28;20498;-70
2023/06/23 00:23:58;;;;;;;3.43;2.83;;;21.00;96.50;;;;;;5028766;28;20503;-68
2023/06/23 00:26:26;;;;;;;3.60;3.20;;;21.00;96.50;;;;;;5030133;28;20957;-69
2023/06/23 00:28:54;;;;;;;3.20;2.90;;;21.00;96.80;;;;;;5029959;28;20479;-70
2023/06/23 00:31:22;;;;;;;3.30;2.70;;;21.00;96.70;;;;;;5030018;28;20444;-69
2023/06/23 00:33:50;;;;;;;3.10;2.60;;;21.00;96.90;;;;;;5028678;28;20447;-69
2023/06/23 00:36:18;;;;;;;3.40;3.10;;;20.90;97.10;;;;;;5030054;28;21096;-69
2023/06/23 00:38:48;;;;;;;3.40;2.97;;;20.90;97.30;;;;;;5029958;28;20484;-69
2023/06/23 00:41:16;;;;;;;3.50;2.50;;;20.80;97.50;;;;;;5029527;28;20441;-69
2023/06/23 00:43:50;;;;;;;3.40;2.93;;;20.90;97.60;;;;;;5028734;28;20458;-69
2023/06/23 00:46:21;;;;;;;3.33;3.03;;;20.90;97.50;;;;;;5029987;28;20517;-69
2023/06/23 00:48:49;;;;;;;2.90;2.70;;;20.80;97.60;;;;;;5030074;28;20519;-70
2023/06/23 00:51:17;;;;;;;2.70;2.50;;;20.80;97.70;;;;;;5029617;28;20441;-69
2023/06/23 00:53:48;;;;;;;2.90;2.70;;;20.80;97.80;;;;;;5028511;28;20457;-70
2023/06/23 00:56:16;;;;;;;2.90;2.60;;;20.80;97.70;;;;;;5030319;28;20445;-69
2023/06/23 00:58:45;;;;;;;3.27;3.07;;;20.80;98.00;;;;;;5030013;28;20440;-69
2023/06/23 01:01:13;;;;;;;3.60;3.30;;;20.70;98.10;;;;;;5029771;28;20445;-69
2023/06/23 01:03:43;;;;;;;2.83;2.63;;;20.60;98.20;;;;;;5028607;28;20461;-70
2023/06/23 01:06:18;;;;;;;3.70;3.37;;;20.60;98.60;;;;;;5029924;28;20511;-69
2023/06/23 01:08:58;;;;;;;2.80;2.60;;;20.60;98.70;;;;;;5029437;28;20502;-69
2023/06/23 01:11:31;;;;;;;3.27;2.97;;;20.50;99.10;;;;;;5030219;28;20447;-68
2023/06/23 01:14:06;;;;;;;2.87;2.67;;;20.40;99.30;;;;;;5028352;28;20473;-70
2023/06/23 01:16:44;;;;;;;3.20;2.87;;;20.40;99.50;;;;;;5030325;28;20451;-68
2023/06/23 01:19:22;;;;;;;3.67;3.37;;;20.20;99.90;;;;;;5029670;28;20855;-68
2023/06/23 01:22:00;;;;;;;3.87;3.33;;;20.10;99.90;;;;;;5032299;28;20483;-69
2023/06/23 01:24:42;;;;;;;6.43;3.77;;;20.10;99.90;;;;;;5033050;28;20532;-68
2023/06/23 01:27:28;;;;;;;4.80;4.40;;;19.60;99.90;;;;;;5033744;28;20885;-70
2023/06/23 01:30:03;;;;;;;4.07;3.77;;;19.10;99.90;;;;;;5033943;28;20484;-70
2023/06/23 01:32:41;;;;;;;5.70;4.80;;;18.80;99.90;;;;;;5047405;28;20459;-69
2023/06/23 01:35:15;;;;;;;4.20;3.90;;;18.60;99.90;;;;;;5053547;28;20440;-69
2023/06/23 01:37:48;;;;;;;4.57;4.27;;;18.40;99.90;;;;;;5036960;28;20986;-69
2023/06/23 01:40:18;;;;;;;5.10;4.70;;;18.40;99.90;;;;;;5033720;28;20516;-69
2023/06/23 01:42:53;;;;;;;4.77;4.37;;;18.30;99.90;;;;;;5031948;28;20502;-69
2023/06/23 01:45:27;;;;;;;5.53;4.73;;;18.20;99.90;;;;;;5033478;28;20505;-69
2023/06/23 01:47:58;;;;;;;5.60;4.93;;;18.10;99.90;;;;;;5033280;28;20441;-69
2023/06/23 01:50:27;;;;;;;5.67;5.03;;;18.10;99.90;;;;;;5033074;28;20500;-69
2023/06/23 01:52:56;;;;;;;6.50;5.90;;;18.10;99.90;;;;;;5031859;28;21055;-70
2023/06/23 01:55:25;;;;;;;5.73;5.13;;;18.00;99.90;;;;;;5033290;28;20446;-69
2023/06/23 01:57:55;;;;;;;6.50;5.90;;;17.90;99.90;;;;;;5033170;28;20532;-69
2023/06/23 02:00:24;;;;;;;6.70;5.97;;;17.90;99.90;;;;;;5032754;28;20440;-69
2023/06/23 02:02:55;;;;;;;6.20;5.60;;;17.80;99.90;;;;;;5031527;28;20513;-69
2023/06/23 02:05:27;;;;;;;6.10;5.50;;;17.80;99.90;;;;;;5032914;28;20461;-69
2023/06/23 02:07:58;;;;;;;6.50;5.90;;;17.70;99.90;;;;;;5032881;28;20441;-70
2023/06/23 02:10:28;;;;;;;6.70;5.70;;;17.70;99.90;;;;;;5032345;28;21031;-69
2023/06/23 02:12:57;;;;;;;5.40;4.87;;;17.80;99.90;;;;;;5031483;28;20462;-68
2023/06/23 02:15:29;;;;;;;4.93;4.43;;;17.80;99.90;;;;;;5032439;28;20928;-69
2023/06/23 02:18:01;;;;;;;3.97;3.57;;;17.80;99.90;;;;;;5032826;28;20461;-68
2023/06/23 02:20:30;;;;;;;6.87;3.97;;;17.70;99.90;;;;;;5032623;28;20444;-70
2023/06/23 02:22:59;;;;;;;4.10;3.70;;;17.70;99.90;;;;;;5031334;28;20529;-69
2023/06/23 02:25:29;;;;;;;3.70;3.40;;;17.70;99.90;;;;;;5032502;28;20445;-70
2023/06/23 02:27:58;;;;;;;4.00;3.70;;;17.70;99.90;;;;;;5032006;28;20443;-69
2023/06/23 02:30:28;;;;;;;4.30;3.90;;;17.70;99.90;;;;;;5032493;28;20488;-69
2023/06/23 02:32:56;;;;;;;4.37;3.97;;;17.70;99.90;;;;;;5030121;28;20567;-69
2023/06/23 02:35:24;;;;;;;4.27;3.87;;;17.70;99.90;;;;;;5032427;28;20547;-69
2023/06/23 02:37:56;;;;;;;4.63;4.07;;;17.70;99.90;;;;;;5032532;28;20448;-68
2023/06/23 02:40:26;;;;;;;5.10;4.70;;;17.70;99.90;;;;;;5032057;28;20482;-69
2023/06/23 02:43:03;;;;;;;5.00;4.57;;;17.70;99.90;;;;;;5031448;28;20522;-69
2023/06/23 02:45:38;;;;;;;5.40;4.90;;;17.70;99.90;;;;;;5032402;28;20445;-69
2023/06/23 02:48:13;;;;;;;5.63;5.23;;;17.70;99.90;;;;;;5032532;28;20589;-68
2023/06/23 02:50:44;;;;;;;5.47;4.97;;;17.70;99.90;;;;;;5032166;28;20831;-69
2023/06/23 02:53:19;;;;;;;5.40;4.53;;;17.70;99.90;;;;;;5030917;28;20477;-69
2023/06/23 02:55:51;;;;;;;6.10;5.60;;;17.70;99.90;;;;;;5031560;28;20450;-69
2023/06/23 02:58:19;;;;;;;6.27;5.77;;;17.70;99.90;;;;;;5032165;28;20524;-69
2023/06/23 03:00:52;;;;;;;6.27;5.73;;;17.70;99.90;;;;;;5031592;28;20470;-69
2023/06/23 03:03:20;;;;;;;7.40;6.80;;;17.70;99.90;;;;;;5030560;28;20467;-69
2023/06/23 03:05:50;;;;;;;7.67;6.97;;;17.80;99.90;;;;;;5032041;28;20449;-69
2023/06/23 03:08:18;;;;;;;7.67;6.97;;;17.80;99.90;;;;;;5031739;28;20526;-68
2023/06/23 03:10:46;;;;;;;8.17;7.37;;;17.90;99.90;;;;;;5031886;28;20896;-69
2023/06/23 03:13:14;;;;;;;9.30;8.40;;;17.90;99.90;;;;;;5030504;28;20523;-68
2023/06/23 03:15:42;;;;;;;8.07;7.37;;;17.90;99.90;;;;;;5045970;28;20452;-69
2023/06/23 03:18:16;;;;;;;7.90;7.20;;;17.90;99.90;;;;;;5051722;28;20447;-68
2023/06/23 03:20:47;;;;;;;7.90;7.20;;;17.90;99.90;;;;;;5052028;28;20471;-69
2023/06/23 03:23:17;;;;;;;8.23;7.47;;;17.90;99.90;;;;;;5050320;28;20554;-69
2023/06/23 03:25:47;;;;;;;10.23;9.23;;;17.90;99.90;;;;;;5051570;28;20448;-69
2023/06/23 03:28:21;;;;;;;10.10;9.20;;;18.00;99.90;;;;;;5051556;28;20440;-69
2023/06/23 03:30:54;;;;;;;9.23;8.43;;;18.00;99.90;;;;;;5051402;28;20544;-69
2023/06/23 03:33:28;;;;;;;11.37;9.73;;;18.10;99.90;;;;;;5050199;28;20997;-69
2023/06/23 03:36:00;;;;;;;10.37;9.47;;;18.10;99.90;;;;;;5051356;28;20442;-69
2023/06/23 03:38:36;;;;;;;11.03;10.03;;;18.10;99.90;;;;;;5051511;28;20444;-69
2023/06/23 03:41:09;;;;;;;9.50;8.70;;;18.10;99.90;;;;;;5051082;28;20494;-69
2023/06/23 03:43:42;;;;;;;10.80;9.80;;;18.10;99.90;;;;;;5050033;28;20455;-69
2023/06/23 03:46:17;;;;;;;10.30;9.40;;;18.20;99.90;;;;;;5051107;28;20448;-69
2023/06/23 03:48:49;;;;;;;10.00;9.10;;;18.20;99.90;;;;;;5051321;28;20508;-69
2023/06/23 03:51:18;;;;;;;10.40;9.50;;;18.20;99.90;;;;;;5051180;28;20563;-69
2023/06/23 03:53:48;;;;;;;11.37;9.90;;;18.30;99.90;;;;;;5050712;28;20464;-69
2023/06/23 03:56:17;;;;;;;14.00;10.80;;;18.30;99.90;;;;;;5051849;28;20447;-69
2023/06/23 03:58:47;;;;;;;13.20;10.60;;;18.30;99.90;;;;;;5051424;28;20436;-69
2023/06/23 04:01:20;;;;;;;11.07;10.03;;;18.40;99.90;;;;;;5051813;28;20527;-69
2023/06/23 04:03:53;;;;;;;10.90;9.90;;;18.40;99.90;;;;;;5050510;28;20446;-69
2023/06/23 04:06:22;;;;;;;11.47;10.37;;;18.40;99.90;;;;;;5051926;28;20494;-69
2023/06/23 04:08:54;;;;;;;10.90;9.73;;;18.50;99.90;;;;;;5051473;28;20498;-69
2023/06/23 04:11:23;;;;;;;11.23;10.03;;;18.50;99.90;;;;;;5051452;28;20486;-68
2023/06/23 04:13:53;;;;;;;11.00;10.00;;;18.60;99.90;;;;;;5049903;28;20477;-67
2023/06/23 04:16:22;;;;;;;12.47;11.30;;;18.60;99.90;;;;;;5050861;28;20525;-67
2023/06/23 04:18:53;;;;;;;10.93;9.93;;;18.70;99.90;;;;;;5051028;28;20805;-67
2023/06/23 04:21:23;;;;;;;12.10;11.00;;;18.70;99.90;;;;;;5050120;28;20798;-67
2023/06/23 04:23:53;;;;;;;13.20;11.80;;;18.70;99.90;;;;;;5049118;28;20931;-67
2023/06/23 04:26:22;;;;;;;12.77;11.57;;;18.70;99.90;;;;;;5050012;28;20534;-67
2023/06/23 04:28:53;;;;;;;13.13;11.83;;;18.70;99.90;;;;;;5050262;28;20543;-65
2023/06/23 04:31:22;;;;;;;12.77;11.73;;;18.80;99.90;;;;;;5049885;28;20536;-68
2023/06/23 04:33:52;;;;;;;13.90;12.40;;;18.80;99.90;;;;;;5049178;28;20450;-68
2023/06/23 04:36:25;;;;;;;13.50;12.40;;;18.90;99.90;;;;;;5050357;28;20501;-68
2023/06/23 04:38:58;;;;;;;13.67;12.37;;;18.90;99.90;;;;;;5049708;28;20825;-66
2023/06/23 04:41:28;;;;;;;14.27;12.67;;;18.90;99.90;;;;;;5050001;28;20498;-68
2023/06/23 04:44:00;;;;;;;15.97;14.20;;;18.90;99.90;;;;;;5048797;28;20436;-67
2023/06/23 04:46:32;;;;;;;14.37;13.07;;;18.90;99.90;;;;;;5050067;28;20472;-68
2023/06/23 04:49:08;;;;;;;16.70;15.10;;;19.00;99.90;;;;;;5049375;28;20432;-68
2023/06/23 04:51:41;;;;;;;15.03;13.63;;;19.00;99.90;;;;;;5039052;28;20472;-69
2023/06/23 04:54:15;;;;;;;15.73;14.10;;;19.10;99.90;;;;;;5028473;28;20560;-69
2023/06/23 04:56:45;;;;;;;18.07;15.10;;;19.10;99.90;;;;;;5029637;28;21061;-70
2023/06/23 04:59:16;;;;;;;18.33;16.03;;;19.10;99.90;;;;;;5029609;28;21050;-70
2023/06/23 05:01:46;;;;;;;18.30;15.90;;;19.10;99.90;;;;;;5029628;28;20457;-70
2023/06/23 05:04:17;;;;;;;18.47;14.80;;;19.00;99.90;;;;;;5028927;28;21067;-70
2023/06/23 05:06:47;;;;;;;20.40;17.33;;;18.90;99.90;;;;;;5029843;28;20572;-69
2023/06/23 05:09:17;;;;;;;19.67;17.67;;;18.80;99.90;;;;;;5029855;28;20468;-69
2023/06/23 05:11:48;;;;;;;22.70;20.50;;;18.80;99.90;;;;;;5029411;28;20522;-72
2023/06/23 05:14:18;;;;;;;20.37;18.13;;;18.80;99.90;;;;;;5028348;28;20445;-67
2023/06/23 05:16:48;;;;;;;21.20;19.10;;;18.80;99.90;;;;;;5025906;28;20456;-68
2023/06/23 05:19:20;;;;;;;21.43;19.40;;;18.70;99.90;;;;;;5029474;28;20469;-69
2023/06/23 05:21:51;;;;;;;23.03;20.73;;;18.70;99.90;;;;;;5042372;28;20480;-70
2023/06/23 05:24:20;;;;;;;23.00;20.40;;;18.70;99.90;;;;;;5053052;28;20532;-71
2023/06/23 05:26:49;;;;;;;22.37;20.20;;;18.80;99.90;;;;;;5067300;28;20488;-72
2023/06/23 05:29:19;;;;;;;24.47;21.97;;;18.80;99.90;;;;;;5069426;28;20439;-71
2023/06/23 05:31:47;;;;;;;26.97;21.70;;;18.90;99.90;;;;;;5069698;28;20495;-71
2023/06/23 05:34:19;;;;;;;28.23;21.00;;;19.00;99.90;;;;;;5067329;28;20439;-72
2023/06/23 05:36:50;;;;;;;28.23;23.10;;;19.10;99.90;;;;;;5069678;28;20518;-70
2023/06/23 05:39:20;;;;;;;29.90;23.43;;;19.20;99.90;;;;;;5069437;28;20439;-71
2023/06/23 05:41:48;;;;;;;27.60;22.93;;;19.30;99.90;;;;;;5069320;28;20487;-71
2023/06/23 05:44:16;;;;;;;25.10;22.40;;;19.50;99.90;;;;;;5068348;28;20447;-72
2023/06/23 05:46:47;;;;;;;25.53;22.93;;;19.70;99.90;;;;;;5069613;28;20554;-71
2023/06/23 05:49:19;;;;;;;26.00;22.10;;;19.60;99.90;;;;;;5069580;28;20451;-70
2023/06/23 05:51:55;;;;;;;24.73;22.27;;;19.60;99.90;;;;;;5069389;28;20532;-72
2023/06/23 05:54:26;;;;;;;26.60;24.20;;;19.70;99.90;;;;;;5068105;28;21029;-71
2023/06/23 05:56:58;;;;;;;27.50;24.60;;;19.70;99.90;;;;;;5069700;28;20530;-71
2023/06/23 05:59:32;;;;;;;28.30;25.03;;;19.70;99.90;;;;;;5069615;28;20440;-71
2023/06/23 06:02:02;;;;;;;28.50;25.70;;;19.60;99.90;;;;;;5069059;28;20987;-72
2023/06/23 06:04:34;;;;;;;28.93;25.90;;;19.60;99.90;;;;;;5068618;28;20497;-72
2023/06/23 06:07:04;;;;;;;30.27;26.67;;;19.50;99.90;;;;;;5069317;28;20954;-72
2023/06/23 06:09:34;;;;;;;30.13;27.23;;;19.60;99.90;;;;;;5072535;28;20529;-72
2023/06/23 06:12:04;;;;;;;27.50;24.60;;;19.60;99.90;;;;;;5072588;28;20507;-71
2023/06/23 06:14:34;;;;;;;27.17;24.57;;;19.70;99.90;;;;;;5072312;28;20521;-72
2023/06/23 06:17:03;;;;;;;26.67;23.97;;;19.80;99.90;;;;;;5073080;28;20439;-71
2023/06/23 06:19:34;;;;;;;27.43;24.87;;;19.90;99.40;;;;;;5073024;28;20504;-72
2023/06/23 06:22:04;;;;;;;25.90;23.40;;;19.90;99.00;;;;;;5072672;28;20509;-71
2023/06/23 06:24:35;;;;;;;25.70;23.17;;;19.90;99.00;;;;;;5072557;28;20822;-71
2023/06/23 06:27:05;;;;;;;24.33;21.90;;;19.90;98.90;;;;;;5072708;28;20492;-72
2023/06/23 06:29:36;;;;;;;25.80;23.10;;;20.00;98.90;;;;;;5072610;28;20474;-72
2023/06/23 06:32:06;;;;;;;26.97;24.13;;;20.10;99.00;;;;;;5072405;28;20482;-71
2023/06/23 06:34:38;;;;;;;26.53;23.90;;;20.00;98.70;;;;;;5071749;28;20447;-72
2023/06/23 06:37:08;;;;;;;28.23;25.40;;;20.00;98.90;;;;;;5072925;28;20838;-72
2023/06/23 06:39:38;;;;;;;28.47;25.57;;;20.00;98.70;;;;;;5072822;28;20440;-71
2023/06/23 06:42:07;;;;;;;28.80;25.77;;;20.10;98.50;;;;;;5071780;28;20542;-72
2023/06/23 06:44:35;;;;;;;26.00;23.30;;;20.10;98.30;;;;;;5071513;28;20497;-71
2023/06/23 06:47:05;;;;;;;27.00;24.43;;;20.00;99.20;;;;;;5072254;28;21187;-71
2023/06/23 06:49:36;;;;;;;26.13;23.70;;;20.10;98.80;;;;;;5072277;28;20443;-72
2023/06/23 06:52:06;;;;;;;28.10;25.20;;;20.20;98.40;;;;;;5071791;28;20493;-72
2023/06/23 06:54:34;;;;;;;29.17;26.23;;;20.00;97.60;;;;;;5071006;28;20516;-71
2023/06/23 06:57:03;;;;;;;27.93;24.87;;;19.80;98.00;;;;;;5072281;28;20500;-71
2023/06/23 06:59:31;;;;;;;27.70;24.80;;;19.70;98.10;;;;;;5072100;28;20496;-72
2023/06/23 07:02:00;;;;;;;28.67;25.40;;;19.60;98.50;;;;;;5071936;28;20506;-71
2023/06/23 07:04:29;;;;;;;25.83;23.20;;;19.50;98.70;;;;;;5071016;28;20439;-72
2023/06/23 07:06:59;;;;;;;29.00;24.80;;;19.50;99.10;;;;;;5071892;28;20439;-72
2023/06/23 07:09:27;;;;;;;25.90;23.30;;;19.60;99.10;;;;;;5072068;28;20435;-71
2023/06/23 07:11:58;;;;;;;25.63;22.90;;;19.80;98.50;;;;;;5071845;28;20478;-71
2023/06/23 07:14:26;;;;;;;25.30;22.83;;;19.80;98.40;;;;;;5071012;28;20871;-72
2023/06/23 07:16:54;;;;;;;26.57;21.93;;;19.80;97.80;;;;;;5071648;28;20475;-72
2023/06/23 07:19:22;;;;;;;21.93;19.83;;;19.90;97.40;;;;;;5071502;28;20873;-71
2023/06/23 07:21:50;;;;;;;21.40;19.30;;;20.00;97.50;;;;;;5071544;28;20618;-71
2023/06/23 07:24:20;;;;;;;21.97;19.73;;;20.10;96.90;;;;;;5070695;28;20443;-71
2023/06/23 07:26:48;;;;;;;21.20;18.97;;;20.10;96.70;;;;;;5071678;28;20493;-72
2023/06/23 07:29:16;;;;;;;23.00;20.27;;;20.10;96.70;;;;;;5071697;28;20538;-71
2023/06/23 07:31:44;;;;;;;23.10;20.77;;;20.00;97.00;;;;;;5071184;28;20466;-73
2023/06/23 07:34:12;;;;;;;22.43;20.03;;;20.00;96.90;;;;;;5070227;28;20999;-71
2023/06/23 07:36:40;;;;;;;20.13;18.13;;;20.00;97.00;;;;;;5071506;28;20795;-72
2023/06/23 07:39:10;;;;;;;22.80;19.60;;;20.10;97.00;;;;;;5071330;28;21000;-71
2023/06/23 07:41:40;;;;;;;22.53;19.70;;;20.10;96.30;;;;;;5071018;28;20443;-72
2023/06/23 07:44:08;;;;;;;21.60;19.50;;;20.10;96.70;;;;;;5069837;28;20439;-71
2023/06/23 07:46:36;;;;;;;21.07;19.03;;;20.10;96.30;;;;;;5070997;28;21127;-71
2023/06/23 07:49:04;;;;;;;21.10;18.90;;;20.10;96.50;;;;;;5070681;28;20531;-72
2023/06/23 07:51:32;;;;;;;21.57;19.33;;;20.20;96.50;;;;;;5070718;28;20444;-72
2023/06/23 07:54:00;;;;;;;21.47;18.80;;;20.10;96.40;;;;;;5069095;28;20477;-73
2023/06/23 07:56:34;;;;;;;20.50;18.50;;;20.00;96.70;;;;;;5070436;28;20520;-72
2023/06/23 07:59:04;;;;;;;21.33;19.33;;;19.90;96.50;;;;;;5069796;28;20443;-71
2023/06/23 08:01:32;;;;;;;21.42;19.52;;;19.90;96.70;;;;;;5070250;28;20469;-71
2023/06/23 08:04:00;;;;;;;20.90;18.60;;;20.00;96.30;;;;;;5069157;28;20193;-71
2023/06/23 08:06:29;;;;;;;19.60;17.60;;;20.00;95.70;;;;;;5070594;28;20994;-72
2023/06/23 08:08:57;;;;;;;17.17;15.43;;;20.00;95.60;;;;;;5070448;28;20447;-71
2023/06/23 08:11:25;;;;;;;16.80;15.10;;;20.10;94.80;;;;;;5070530;28;20467;-72
2023/06/23 08:13:53;;;;;;;18.53;16.60;;;20.40;94.90;;;;;;5069201;28;20570;-73
2023/06/23 08:16:23;;;;;;;18.60;16.80;;;20.40;94.40;;;;;;5070890;28;20551;-72
2023/06/23 08:18:52;;;;;;;19.27;17.17;;;20.40;94.50;;;;;;5070481;28;20449;-72
2023/06/23 08:21:20;;;;;;;17.43;15.57;;;20.50;94.20;;;;;;5070273;28;20998;-72
2023/06/23 08:23:49;;;;;;;16.23;14.77;;;20.80;94.00;;;;;;5069829;28;20815;-72
2023/06/23 08:26:17;;;;;;;17.17;15.50;;;20.90;93.60;;;;;;5070442;28;20443;-72
2023/06/23 08:28:45;;;;;;;16.60;15.17;;;21.00;92.80;;;;;;5070358;28;20439;-72
2023/06/23 08:31:13;;;;;;;17.77;16.10;;;21.00;92.40;;;;;;5069657;28;20529;-72
2023/06/23 08:33:43;;;;;;;15.53;14.23;;;20.80;93.00;;;;;;5069187;28;20479;-71
2023/06/23 08:36:11;;;;;;;17.70;15.97;;;20.90;93.10;;;;;;5070324;28;20463;-72
2023/06/23 08:38:40;;;;;;;17.20;15.50;;;21.00;93.20;;;;;;5070194;28;20443;-72
2023/06/23 08:41:09;;;;;;;18.40;16.63;;;21.10;93.00;;;;;;5070499;28;20427;-71
2023/06/23 08:43:44;;;;;;;17.33;15.50;;;21.30;92.30;;;;;;5069198;28;20451;-71
2023/06/23 08:46:14;;;;;;;16.93;15.23;;;21.20;92.90;;;;;;5070491;28;20439;-72
2023/06/23 08:48:46;;;;;;;14.43;12.80;;;21.30;92.50;;;;;;5070278;28;20489;-71
2023/06/23 08:51:15;;;;;;;14.20;13.00;;;21.50;92.80;;;;;;5070279;28;20926;-73
2023/06/23 08:53:44;;;;;;;12.90;11.60;;;21.70;91.10;;;;;;5069677;28;20487;-72
2023/06/23 08:56:15;;;;;;;14.13;12.80;;;21.60;90.40;;;;;;5070389;28;20450;-72
2023/06/23 08:58:43;;;;;;;13.20;11.40;;;21.50;90.00;;;;;;5070267;28;20526;-72
2023/06/23 09:01:11;;;;;;;12.73;11.47;;;21.60;90.50;;;;;;5070263;28;20933;-72
2023/06/23 09:03:39;;;;;;;13.00;11.70;;;21.90;90.10;;;;;;5068376;28;20459;-71
2023/06/23 09:06:09;;;;;;;13.50;12.30;;;22.10;88.60;;;;;;5069788;28;20447;-72
2023/06/23 09:08:37;;;;;;;15.17;11.83;;;22.10;86.60;;;;;;5069791;28;20538;-71
2023/06/23 09:11:05;;;;;;;14.43;13.03;;;22.40;88.00;;;;;;5070084;28;20875;-71
2023/06/23 09:13:36;;;;;;;14.77;13.47;;;22.50;86.80;;;;;;5068452;28;20487;-72
2023/06/23 09:16:04;;;;;;;17.57;15.87;;;22.60;86.30;;;;;;5070061;28;20492;-71
2023/06/23 09:18:38;;;;;;;14.83;13.37;;;22.50;85.60;;;;;;5069765;28;20454;-71
2023/06/23 09:21:09;;;;;;;16.07;14.40;;;22.50;86.90;;;;;;5070073;28;20439;-72
2023/06/23 09:23:37;;;;;;;14.10;12.83;;;22.40;86.00;;;;;;5068558;28;20447;-71
2023/06/23 09:26:06;;;;;;;14.63;13.20;;;22.20;87.70;;;;;;5070058;28;20440;-73
2023/06/23 09:28:36;;;;;;;13.63;12.43;;;22.10;87.10;;;;;;5070055;28;20522;-72
2023/06/23 09:31:14;;;;;;;15.27;13.93;;;22.20;87.40;;;;;;5069842;28;20866;-73
2023/06/23 09:33:47;;;;;;;14.10;12.70;;;22.60;86.00;;;;;;5068694;28;20954;-72
2023/06/23 09:36:17;;;;;;;13.90;11.93;;;22.90;84.00;;;;;;5069876;28;20447;-72
2023/06/23 09:38:48;;;;;;;13.13;11.83;;;22.90;82.20;;;;;;5069989;28;20526;-73
2023/06/23 09:41:18;;;;;;;13.03;11.83;;;22.50;81.40;;;;;;5070370;28;20439;-72
2023/06/23 09:43:50;;;;;;;14.10;12.80;;;22.50;81.20;;;;;;5072673;28;20463;-72
2023/06/23 09:46:20;;;;;;;12.00;10.93;;;22.70;81.70;;;;;;5074009;28;20485;-73
2023/06/23 09:48:50;;;;;;;11.70;10.50;;;22.50;82.30;;;;;;5073769;28;20486;-73
2023/06/23 09:51:19;;;;;;;11.50;10.37;;;22.50;81.10;;;;;;5073693;28;20546;-72
2023/06/23 09:53:48;;;;;;;10.60;9.60;;;22.50;80.00;;;;;;5072454;28;20895;-73
2023/06/23 09:56:18;;;;;;;9.60;8.80;;;22.80;80.00;;;;;;5073864;28;20817;-72
2023/06/23 09:58:47;;;;;;;10.00;9.10;;;23.30;77.70;;;;;;5073533;28;20450;-73
2023/06/23 10:01:19;;;;;;;10.17;9.20;;;23.30;75.20;;;;;;5073617;28;20482;-73
2023/06/23 10:03:49;;;;;;;8.60;7.90;;;23.00;77.10;;;;;;5072267;28;20447;-71
2023/06/23 10:06:28;;;;;;;8.60;7.90;;;23.00;75.90;;;;;;5073521;28;20450;-72
2023/06/23 10:08:58;;;;;;;8.67;7.93;;;23.80;73.00;;;;;;5073493;28;20489;-73
2023/06/23 10:11:31;;;;;;;8.60;7.90;;;24.70;70.40;;;;;;5073485;28;20466;-72
2023/06/23 10:14:01;;;;;;;9.87;8.90;;;25.30;66.80;;;;;;5072190;28;20841;-73
2023/06/23 10:16:30;;;;;;;8.87;8.07;;;24.70;64.90;;;;;;5073730;28;20534;-73
2023/06/23 10:18:59;;;;;;;9.87;9.00;;;24.10;67.10;;;;;;5073445;28;20455;-73
2023/06/23 10:21:29;;;;;;;10.60;9.70;;;23.50;70.60;;;;;;5073108;28;20438;-73
2023/06/23 10:24:00;;;;;;;8.97;8.20;;;23.30;71.80;;;;;;5072731;28;20434;-72
2023/06/23 10:26:29;;;;;;;8.90;8.20;;;23.50;71.60;;;;;;5073801;28;20816;-72
2023/06/23 10:28:59;;;;;;;10.50;9.60;;;23.70;72.70;;;;;;5073504;28;20449;-73
2023/06/23 10:31:31;;;;;;;10.77;9.70;;;23.50;71.10;;;;;;5073695;28;20443;-72
2023/06/23 10:34:06;;;;;;;11.30;10.30;;;23.30;71.20;;;;;;5072507;28;20484;-72
2023/06/23 10:36:41;;;;;;;9.30;8.50;;;23.60;70.60;;;;;;5073557;28;20933;-73
2023/06/23 10:39:11;;;;;;;9.37;8.10;;;24.60;71.00;;;;;;5073946;28;20545;-72
2023/06/23 10:41:41;;;;;;;8.47;7.77;;;24.90;63.90;;;;;;5073556;28;20485;-73
2023/06/23 10:44:09;;;;;;;8.50;7.80;;;23.90;65.80;;;;;;5071838;28;20534;-73
2023/06/23 10:46:38;;;;;;;11.40;10.37;;;23.00;70.50;;;;;;5073107;28;20534;-72
2023/06/23 10:49:07;;;;;;;10.50;9.50;;;22.40;72.30;;;;;;5073230;28;20817;-74
2023/06/23 10:51:37;;;;;;;10.90;9.90;;;22.20;74.50;;;;;;5072792;28;20478;-73
2023/06/23 10:54:09;;;;;;;9.77;8.97;;;22.30;74.70;;;;;;5070870;28;20479;-72
2023/06/23 10:56:38;;;;;;;9.00;8.13;;;22.40;73.80;;;;;;5072338;28;20446;-73
2023/06/23 10:59:19;;;;;;;9.60;8.70;;;22.50;73.40;;;;;;5072135;28;20994;-73
2023/06/23 11:02:17;;;;;;;8.17;7.57;;;23.50;71.70;;;;;;5072061;28;20470;-73
2023/06/23 11:04:54;;;;;;;9.87;8.97;;;24.60;69.10;;;;;;5071304;28;20440;-74
2023/06/23 11:07:22;;;;;;;8.47;7.77;;;24.90;62.80;;;;;;5072325;28;20873;-74
2023/06/23 11:10:04;;;;;;;9.33;8.57;;;25.30;63.00;;;;;;5072074;28;20443;-73
2023/06/23 11:12:34;;;;;;;9.80;8.53;;;25.20;63.60;;;;;;5070694;28;20545;-73
2023/06/23 11:15:12;;;;;;;9.63;8.83;;;24.70;65.30;;;;;;5071509;28;20536;-73
2023/06/23 11:17:41;;;;;;;11.73;8.93;;;24.00;68.70;;;;;;5071652;28;20439;-74
2023/06/23 11:20:11;;;;;;;10.20;9.10;;;24.30;65.00;;;;;;5071963;28;20846;-73
2023/06/23 11:22:41;;;;;;;8.97;8.10;;;24.70;65.80;;;;;;5070327;28;21011;-74
2023/06/23 11:25:24;;;;;;;8.57;7.77;;;25.10;65.60;;;;;;5071913;28;20854;-74
2023/06/23 11:28:25;;;;;;;9.10;8.00;;;25.60;64.10;;;;;;5071994;28;20496;-71
2023/06/23 11:30:54;;;;;;;8.30;7.60;;;26.10;62.90;;;;;;5071973;28;20446;-71
2023/06/23 11:33:26;;;;;;;8.50;7.30;;;26.10;59.60;;;;;;5070252;28;20466;-72
2023/06/23 11:35:54;;;;;;;6.93;6.33;;;26.10;58.60;;;;;;5071416;28;20477;-72
2023/06/23 11:38:22;;;;;;;9.77;8.30;;;26.50;60.30;;;;;;5071600;28;20446;-72
2023/06/23 11:40:53;;;;;;;9.30;8.47;;;25.90;59.00;;;;;;5071632;28;20845;-72
2023/06/23 11:43:22;;;;;;;9.67;8.80;;;25.00;62.60;;;;;;5064649;28;20505;-72
2023/06/23 11:45:56;;;;;;;8.00;7.30;;;25.00;64.30;;;;;;5045760;28;20430;-71
2023/06/23 11:48:28;;;;;;;6.73;6.13;;;25.60;60.00;;;;;;5039960;28;20501;-70
2023/06/23 11:50:56;;;;;;;7.57;6.87;;;25.80;58.00;;;;;;5049036;28;20433;-71
2023/06/23 11:53:25;;;;;;;7.20;6.60;;;26.20;57.30;;;;;;5040465;28;20915;-71
2023/06/23 11:55:55;;;;;;;6.13;5.63;;;26.20;56.40;;;;;;5039178;28;20479;-71
2023/06/23 11:58:23;;;;;;;6.20;5.60;;;26.40;56.90;;;;;;5040168;28;20464;-70
2023/06/23 12:00:51;;;;;;;7.00;5.80;;;26.90;54.70;;;;;;5038852;28;20445;-70
2023/06/23 12:03:19;;;;;;;7.60;6.87;;;27.20;53.10;;;;;;5038919;28;20456;-70
2023/06/23 12:05:47;;;;;;;9.67;8.77;;;27.20;55.50;;;;;;5036975;28;20429;-70
2023/06/23 12:08:16;;;;;;;9.20;8.40;;;27.00;56.10;;;;;;5038667;28;20437;-69
2023/06/23 12:10:47;;;;;;;9.30;8.50;;;26.00;57.70;;;;;;5038602;28;20436;-70
2023/06/23 12:13:16;;;;;;;9.50;8.80;;;25.30;59.40;;;;;;5038412;28;20932;-69
2023/06/23 12:15:45;;;;;;;7.97;7.17;;;25.80;59.00;;;;;;5040184;28;20587;-71
2023/06/23 12:18:13;;;;;;;6.53;6.03;;;27.00;57.70;;;;;;5039981;28;20516;-70
2023/06/23 12:20:43;;;;;;;6.23;5.73;;;27.30;55.30;;;;;;5038520;28;20429;-70
2023/06/23 12:23:11;;;;;;;6.37;5.53;;;27.20;52.40;;;;;;5034049;28;20538;-69
2023/06/23 12:25:41;;;;;;;6.30;5.70;;;27.70;51.90;;;;;;5038823;28;20869;-69
2023/06/23 12:28:13;;;;;;;7.20;5.90;;;26.90;52.10;;;;;;5036320;28;20943;-69
2023/06/23 12:30:44;;;;;;;5.37;4.97;;;26.20;53.30;;;;;;5039694;28;20437;-71
2023/06/23 12:33:14;;;;;;;5.90;5.30;;;26.50;54.10;;;;;;5049087;28;20520;-72
2023/06/23 12:35:42;;;;;;;7.00;6.40;;;26.90;53.20;;;;;;5050678;28;20818;-71
2023/06/23 12:38:11;;;;;;;6.40;5.80;;;27.00;53.20;;;;;;5050585;28;20444;-69
2023/06/23 12:40:43;;;;;;;7.10;6.33;;;27.40;54.10;;;;;;5050504;28;20534;-68
2023/06/23 12:43:11;;;;;;;6.70;6.07;;;28.10;52.20;;;;;;5048950;28;20642;-69
2023/06/23 12:45:39;;;;;;;5.60;5.10;;;27.60;52.40;;;;;;5050145;28;20808;-69
2023/06/23 12:48:12;;;;;;;6.50;6.00;;;26.70;51.90;;;;;;5050084;28;20447;-70
2023/06/23 12:50:42;;;;;;;6.50;5.90;;;25.70;54.80;;;;;;5050086;28;20444;-71
2023/06/23 12:53:10;;;;;;;5.70;5.20;;;25.00;56.60;;;;;;5048767;28;20510;-71